Time,TemperatureF,DewpointF,PressureIn,WindDirection,WindDirectionDegrees,WindSpeedMPH,WindSpeedGustMPH,Humidity,HourlyPrecipIn,Conditions,Clouds,dailyrainin,SoftwareType,DateUTC
2017-02-21 00:05:00,57.1,41.5,30.04,SE,138,3.0,4.0,56,0.00,,,0.00,Wunderground v.1.15,2017-02-21 05:05:00,
2017-02-21 00:10:00,57.0,41.4,30.04,East,100,2.0,3.0,56,0.00,,,0.00,Wunderground v.1.15,2017-02-21 05:10:00,
2017-02-21 00:20:00,56.7,41.6,30.05,ESE,104,3.0,3.0,57,0.00,,,0.00,Wunderground v.1.15,2017-02-21 05:20:00,
2017-02-21 00:30:00,56.3,41.3,30.05,ESE,109,2.0,4.0,57,0.00,,,0.00,Wunderground v.1.15,2017-02-21 05:30:00,
2017-02-21 00:40:00,56.1,41.5,30.05,ESE,115,1.0,1.0,58,0.00,,,0.00,Wunderground v.1.15,2017-02-21 05:40:00,
2017-02-21 00:45:00,56.0,41.4,30.05,SE,125,1.0,5.0,58,0.00,,,0.00,Wunderground v.1.15,2017-02-21 05:45:00,
2017-02-21 00:55:00,55.8,41.2,30.05,ENE,77,1.0,1.0,58,0.00,,,0.00,Wunderground v.1.15,2017-02-21 05:55:00,
2017-02-21 01:05:00,55.8,41.7,30.04,ESE,108,2.0,3.0,59,0.00,,,0.00,Wunderground v.1.15,2017-02-21 06:05:00,
2017-02-21 01:15:00,55.7,41.6,30.04,SE,142,1.0,2.0,59,0.00,,,0.00,Wunderground v.1.15,2017-02-21 06:15:00,
2017-02-21 01:20:00,55.7,41.6,30.03,SSE,167,1.0,1.0,59,0.00,,,0.00,Wunderground v.1.15,2017-02-21 06:20:00,
2017-02-21 01:30:00,55.5,41.8,30.04,SE,124,1.0,3.0,60,0.00,,,0.00,Wunderground v.1.15,2017-02-21 06:30:00,
2017-02-21 01:35:00,55.5,41.8,30.04,SE,138,1.0,3.0,60,0.00,,,0.00,Wunderground v.1.15,2017-02-21 06:35:00,
2017-02-21 01:45:00,55.0,41.8,30.04,SE,132,0.0,1.0,61,0.00,,,0.00,Wunderground v.1.15,2017-02-21 06:45:00,
2017-02-21 01:55:00,54.9,41.7,30.03,ESE,122,1.0,1.0,61,0.00,,,0.00,Wunderground v.1.15,2017-02-21 06:55:00,
2017-02-21 02:05:00,54.8,42.0,30.03,ESE,113,1.0,1.0,62,0.00,,,0.00,Wunderground v.1.15,2017-02-21 07:05:00,
2017-02-21 02:15:00,54.8,42.0,30.03,ESE,110,1.0,1.0,62,0.00,,,0.00,Wunderground v.1.15,2017-02-21 07:15:00,
2017-02-21 02:25:00,54.7,41.9,30.03,ESE,123,1.0,2.0,62,0.00,,,0.00,Wunderground v.1.15,2017-02-21 07:25:00,
2017-02-21 02:35:00,54.6,41.8,30.03,SE,130,1.0,3.0,62,0.00,,,0.00,Wunderground v.1.15,2017-02-21 07:35:00,
2017-02-21 02:40:00,54.3,42.0,30.02,ESE,122,1.0,1.0,63,0.00,,,0.00,Wunderground v.1.15,2017-02-21 07:40:00,
2017-02-21 02:45:00,54.2,41.9,30.03,SE,132,0.0,1.0,63,0.00,,,0.00,Wunderground v.1.15,2017-02-21 07:45:00,
2017-02-21 02:55:00,54.3,42.0,30.02,South,179,0.0,1.0,63,0.00,,,0.00,Wunderground v.1.15,2017-02-21 07:55:00,
2017-02-21 03:00:00,54.2,42.3,30.02,ESE,108,0.0,4.0,64,0.00,,,0.00,Wunderground v.1.15,2017-02-21 08:00:00,
2017-02-21 03:10:00,54.3,42.4,30.01,East,83,1.0,5.0,64,0.00,,,0.00,Wunderground v.1.15,2017-02-21 08:10:00,
2017-02-21 03:20:00,54.6,42.3,30.02,East,86,2.0,2.0,63,0.00,,,0.00,Wunderground v.1.15,2017-02-21 08:20:00,
2017-02-21 03:25:00,54.4,42.5,30.02,SE,141,0.0,2.0,64,0.00,,,0.00,Wunderground v.1.15,2017-02-21 08:25:00,
2017-02-21 03:35:00,53.8,42.3,30.02,South,190,0.0,0.0,65,0.00,,,0.00,Wunderground v.1.15,2017-02-21 08:35:00,
2017-02-21 03:45:00,53.3,42.2,30.02,SE,133,0.0,0.0,66,0.00,,,0.00,Wunderground v.1.15,2017-02-21 08:45:00,
2017-02-21 03:55:00,53.1,42.0,30.02,SSE,155,0.0,0.0,66,0.00,,,0.00,Wunderground v.1.15,2017-02-21 08:55:00,
2017-02-21 04:05:00,52.8,42.1,30.02,SSW,208,0.0,0.0,67,0.00,,,0.00,Wunderground v.1.15,2017-02-21 09:05:00,
2017-02-21 04:10:00,52.5,42.2,30.02,SE,138,0.0,0.0,68,0.00,,,0.00,Wunderground v.1.15,2017-02-21 09:10:00,
2017-02-21 04:20:00,52.0,42.1,30.01,SE,138,0.0,0.0,69,0.00,,,0.00,Wunderground v.1.15,2017-02-21 09:20:00,
2017-02-21 04:30:00,52.3,42.4,30.01,SE,136,0.0,0.0,69,0.00,,,0.00,Wunderground v.1.15,2017-02-21 09:30:00,
2017-02-21 04:40:00,52.8,42.9,30.01,SE,143,0.0,0.0,69,0.00,,,0.00,Wunderground v.1.15,2017-02-21 09:40:00,
2017-02-21 04:45:00,53.1,42.8,30.01,SE,127,1.0,1.0,68,0.00,,,0.00,Wunderground v.1.15,2017-02-21 09:45:00,
2017-02-21 04:50:00,53.2,42.9,30.02,SSW,200,1.0,1.0,68,0.00,,,0.00,Wunderground v.1.15,2017-02-21 09:50:00,
2017-02-21 05:00:00,52.7,42.8,30.01,South,184,0.0,0.0,69,0.00,,,0.00,Wunderground v.1.15,2017-02-21 10:00:00,
2017-02-21 05:10:00,52.2,42.7,30.01,South,184,0.0,0.0,70,0.00,,,0.00,Wunderground v.1.15,2017-02-21 10:10:00,
2017-02-21 05:15:00,51.9,42.4,30.02,South,184,0.0,0.0,70,0.00,,,0.00,Wunderground v.1.15,2017-02-21 10:15:00,
2017-02-21 05:25:00,51.4,42.7,30.02,South,184,0.0,0.0,72,0.00,,,0.00,Wunderground v.1.15,2017-02-21 10:25:00,
2017-02-21 05:35:00,50.9,42.6,30.01,South,184,0.0,0.0,73,0.00,,,0.00,Wunderground v.1.15,2017-02-21 10:35:00,
2017-02-21 05:45:00,50.7,42.4,30.02,South,181,0.0,0.0,73,0.00,,,0.00,Wunderground v.1.15,2017-02-21 10:45:00,
2017-02-21 05:55:00,50.5,42.5,30.02,South,181,0.0,0.0,74,0.00,,,0.00,Wunderground v.1.15,2017-02-21 10:55:00,
2017-02-21 06:00:00,50.5,42.5,30.02,South,184,0.0,0.0,74,0.00,,,0.00,Wunderground v.1.15,2017-02-21 11:00:00,
2017-02-21 06:10:00,50.1,42.1,30.02,South,184,0.0,0.0,74,0.00,,,0.00,Wunderground v.1.15,2017-02-21 11:10:00,
2017-02-21 06:15:00,50.1,42.5,30.02,South,184,0.0,0.0,75,0.00,,,0.00,Wunderground v.1.15,2017-02-21 11:15:00,
2017-02-21 06:25:00,49.5,41.9,30.02,South,184,0.0,0.0,75,0.00,,,0.00,Wunderground v.1.15,2017-02-21 11:25:00,
2017-02-21 06:35:00,48.5,41.6,30.02,South,183,0.0,0.0,77,0.00,,,0.00,Wunderground v.1.15,2017-02-21 11:35:00,
2017-02-21 06:45:00,48.3,41.8,30.02,South,183,0.0,0.0,78,0.00,,,0.00,Wunderground v.1.15,2017-02-21 11:45:00,
2017-02-21 06:55:00,48.3,42.1,30.02,South,183,0.0,0.0,79,0.00,,,0.00,Wunderground v.1.15,2017-02-21 11:55:00,
2017-02-21 07:00:00,48.5,42.3,30.02,South,184,0.0,0.0,79,0.00,,,0.00,Wunderground v.1.15,2017-02-21 12:00:00,
2017-02-21 07:10:00,48.0,41.8,30.02,South,183,0.0,0.0,79,0.00,,,0.00,Wunderground v.1.15,2017-02-21 12:10:00,
2017-02-21 07:15:00,47.5,41.3,30.02,South,184,0.0,0.0,79,0.00,,,0.00,Wunderground v.1.15,2017-02-21 12:15:00,
2017-02-21 07:20:00,47.3,41.4,30.02,South,184,0.0,0.0,80,0.00,,,0.00,Wunderground v.1.15,2017-02-21 12:20:00,
2017-02-21 07:30:00,47.6,42.1,30.03,South,183,0.0,0.0,81,0.00,,,0.00,Wunderground v.1.15,2017-02-21 12:30:00,
2017-02-21 07:35:00,47.9,42.0,30.03,South,183,0.0,0.0,80,0.00,,,0.00,Wunderground v.1.15,2017-02-21 12:35:00,
2017-02-21 07:45:00,48.0,42.1,30.03,South,183,0.0,0.0,80,0.00,,,0.00,Wunderground v.1.15,2017-02-21 12:45:00,
2017-02-21 07:55:00,48.2,42.3,30.04,South,183,0.0,0.0,80,0.00,,,0.00,Wunderground v.1.15,2017-02-21 12:55:00,
2017-02-21 08:00:00,48.4,42.5,30.04,South,184,0.0,0.0,80,0.00,,,0.00,Wunderground v.1.15,2017-02-21 13:00:00,
2017-02-21 08:10:00,48.8,42.6,30.04,South,184,0.0,0.0,79,0.00,,,0.00,Wunderground v.1.15,2017-02-21 13:10:00,
2017-02-21 08:20:00,49.4,43.2,30.04,South,183,0.0,0.0,79,0.00,,,0.00,Wunderground v.1.15,2017-02-21 13:20:00,
2017-02-21 08:30:00,50.0,43.4,30.04,South,183,0.0,0.0,78,0.00,,,0.00,Wunderground v.1.15,2017-02-21 13:30:00,
2017-02-21 08:40:00,50.7,43.8,30.04,South,183,0.0,0.0,77,0.00,,,0.00,Wunderground v.1.15,2017-02-21 13:40:00,
2017-02-21 08:45:00,51.3,44.0,30.04,South,183,0.0,0.0,76,0.00,,,0.00,Wunderground v.1.15,2017-02-21 13:45:00,
2017-02-21 08:55:00,52.6,44.9,30.03,SE,146,0.0,0.0,75,0.00,,,0.00,Wunderground v.1.15,2017-02-21 13:55:00,
2017-02-21 09:05:00,54.9,46.4,30.03,SE,134,0.0,0.0,73,0.00,,,0.00,Wunderground v.1.15,2017-02-21 14:05:00,
2017-02-21 09:15:00,57.7,47.6,30.03,SE,134,0.0,0.0,69,0.00,,,0.00,Wunderground v.1.15,2017-02-21 14:15:00,
2017-02-21 09:25:00,59.9,48.1,30.03,SSE,150,0.0,1.0,65,0.00,,,0.00,Wunderground v.1.15,2017-02-21 14:25:00,
2017-02-21 09:30:00,60.9,48.6,30.03,SE,135,0.0,2.0,64,0.00,,,0.00,Wunderground v.1.15,2017-02-21 14:30:00,
2017-02-21 09:40:00,63.3,49.2,30.03,SW,214,1.0,2.0,60,0.00,,,0.00,Wunderground v.1.15,2017-02-21 14:40:00,
2017-02-21 09:50:00,63.6,48.5,30.03,ESE,110,1.0,1.0,58,0.00,,,0.00,Wunderground v.1.15,2017-02-21 14:50:00,
2017-02-21 09:55:00,63.7,48.6,30.02,WNW,298,1.0,3.0,58,0.00,,,0.00,Wunderground v.1.15,2017-02-21 14:55:00,
2017-02-21 10:05:00,63.8,48.7,30.02,NE,37,1.0,2.0,58,0.00,,,0.00,Wunderground v.1.15,2017-02-21 15:05:00,
2017-02-21 10:15:00,64.0,48.5,30.02,NE,47,1.0,1.0,57,0.00,,,0.00,Wunderground v.1.15,2017-02-21 15:15:00,
2017-02-21 10:25:00,63.8,48.3,30.03,NNE,17,2.0,2.0,57,0.00,,,0.00,Wunderground v.1.15,2017-02-21 15:25:00,
2017-02-21 10:35:00,64.0,48.9,30.03,ESE,120,1.0,2.0,58,0.00,,,0.00,Wunderground v.1.15,2017-02-21 15:35:00,
2017-02-21 10:40:00,64.2,48.6,30.03,East,97,1.0,2.0,57,0.00,,,0.00,Wunderground v.1.15,2017-02-21 15:40:00,
2017-02-21 10:50:00,65.0,49.4,30.02,East,96,1.0,1.0,57,0.00,,,0.00,Wunderground v.1.15,2017-02-21 15:50:00,
2017-02-21 11:00:00,65.4,49.3,30.02,WSW,250,1.0,1.0,56,0.00,,,0.00,Wunderground v.1.15,2017-02-21 16:00:00,
2017-02-21 11:05:00,65.5,48.9,30.02,SSE,155,1.0,1.0,55,0.00,,,0.00,Wunderground v.1.15,2017-02-21 16:05:00,
2017-02-21 11:15:00,65.9,49.3,30.02,ESE,122,0.0,1.0,55,0.00,,,0.00,Wunderground v.1.15,2017-02-21 16:15:00,
2017-02-21 11:25:00,66.6,49.9,30.02,NW,326,1.0,1.0,55,0.00,,,0.00,Wunderground v.1.15,2017-02-21 16:25:00,
2017-02-21 11:35:00,67.0,49.8,30.02,SSW,197,2.0,2.0,54,0.00,,,0.00,Wunderground v.1.15,2017-02-21 16:35:00,
2017-02-21 11:40:00,67.2,50.0,30.02,SE,124,1.0,1.0,54,0.00,,,0.00,Wunderground v.1.15,2017-02-21 16:40:00,
2017-02-21 11:50:00,67.6,50.4,30.02,East,101,1.0,2.0,54,0.00,,,0.00,Wunderground v.1.15,2017-02-21 16:50:00,
2017-02-21 12:00:00,67.3,50.1,30.02,ENE,66,1.0,1.0,54,0.00,,,0.00,Wunderground v.1.15,2017-02-21 17:00:00,
2017-02-21 12:10:00,67.0,49.8,30.01,ENE,76,1.0,1.0,54,0.00,,,0.00,Wunderground v.1.15,2017-02-21 17:10:00,
2017-02-21 12:15:00,66.9,49.7,30.01,South,186,1.0,1.0,54,0.00,,,0.00,Wunderground v.1.15,2017-02-21 17:15:00,
2017-02-21 12:25:00,67.1,50.4,30.01,ESE,113,1.0,1.0,55,0.00,,,0.00,Wunderground v.1.15,2017-02-21 17:25:00,
2017-02-21 12:35:00,67.0,50.3,30.00,West,267,0.0,1.0,55,0.00,,,0.00,Wunderground v.1.15,2017-02-21 17:35:00,
2017-02-21 12:45:00,66.8,50.1,30.00,WSW,255,1.0,3.0,55,0.00,,,0.00,Wunderground v.1.15,2017-02-21 17:45:00,
2017-02-21 12:55:00,66.9,50.2,30.00,SSW,201,1.0,1.0,55,0.00,,,0.00,Wunderground v.1.15,2017-02-21 17:55:00,
2017-02-21 13:00:00,66.9,50.7,30.00,East,83,1.0,1.0,56,0.00,,,0.00,Wunderground v.1.15,2017-02-21 18:00:00,
2017-02-21 13:10:00,67.5,51.2,30.00,SW,226,0.0,3.0,56,0.00,,,0.00,Wunderground v.1.15,2017-02-21 18:10:00,
2017-02-21 13:20:00,68.3,51.0,30.00,NE,53,1.0,2.0,54,0.00,,,0.00,Wunderground v.1.15,2017-02-21 18:20:00,
2017-02-21 13:30:00,68.7,51.4,30.00,SW,217,1.0,2.0,54,0.00,,,0.00,Wunderground v.1.15,2017-02-21 18:30:00,
2017-02-21 13:35:00,69.1,51.8,30.00,WNW,287,1.0,2.0,54,0.00,,,0.00,Wunderground v.1.15,2017-02-21 18:35:00,
2017-02-21 13:45:00,69.2,51.8,29.99,East,83,1.0,1.0,54,0.00,,,0.00,Wunderground v.1.15,2017-02-21 18:45:00,
2017-02-21 13:55:00,69.3,51.4,29.99,SE,141,1.0,2.0,53,0.00,,,0.00,Wunderground v.1.15,2017-02-21 18:55:00,
2017-02-21 14:05:00,69.3,51.4,29.98,SSE,167,1.0,1.0,53,0.00,,,0.00,Wunderground v.1.15,2017-02-21 19:05:00,
2017-02-21 14:15:00,69.3,51.9,29.98,East,80,0.0,1.0,54,0.00,,,0.00,Wunderground v.1.15,2017-02-21 19:15:00,
2017-02-21 14:20:00,69.3,51.9,29.98,SW,217,0.0,0.0,54,0.00,,,0.00,Wunderground v.1.15,2017-02-21 19:20:00,
2017-02-21 14:25:00,69.2,51.8,29.97,SE,132,1.0,1.0,54,0.00,,,0.00,Wunderground v.1.15,2017-02-21 19:25:00,
2017-02-21 14:35:00,69.0,51.7,29.97,SE,131,1.0,1.0,54,0.00,,,0.00,Wunderground v.1.15,2017-02-21 19:35:00,
2017-02-21 14:40:00,68.7,51.4,29.97,North,7,1.0,1.0,54,0.00,,,0.00,Wunderground v.1.15,2017-02-21 19:40:00,
2017-02-21 14:50:00,68.0,51.7,29.97,ESE,117,1.0,1.0,56,0.00,,,0.00,Wunderground v.1.15,2017-02-21 19:50:00,
2017-02-21 15:00:00,68.0,51.7,29.97,ESE,121,0.0,0.0,56,0.00,,,0.00,Wunderground v.1.15,2017-02-21 20:00:00,
2017-02-21 15:05:00,67.9,51.6,29.96,SE,131,0.0,0.0,56,0.00,,,0.00,Wunderground v.1.15,2017-02-21 20:05:00,
2017-02-21 15:15:00,67.9,51.6,29.96,SSE,160,0.0,0.0,56,0.00,,,0.00,Wunderground v.1.15,2017-02-21 20:15:00,